Time;durP1;ratioP1;P1;durP2;ratioP2;P2;SDS_P1;SDS_P2;PMS_P1;PMS_P2;Temp;Humidity;BMP_temperature;BMP_pressure;BME280_temperature;BME280_humidity;BME280_pressure;Samples;Min_cycle;Max_cycle;Signal;HPM_P1;HPM_P2
2022/04/28 00:00:42;;;;;;;13.00;5.40;;;;;;;;;;5042016;28;20056;-70
2022/04/28 00:03:09;;;;;;;11.93;5.18;;;;;;;;;;5042169;28;20029;-70
2022/04/28 00:05:35;;;;;;;14.07;5.47;;;;;;;;;;5042657;28;20021;-70
2022/04/28 00:08:00;;;;;;;10.15;4.50;;;;;;;;;;5045019;28;20044;-70
2022/04/28 00:10:26;;;;;;;14.68;4.70;;;;;;;;;;5039603;28;20099;-70
2022/04/28 00:12:51;;;;;;;11.25;5.10;;;;;;;;;;5041645;28;20033;-70
2022/04/28 00:15:17;;;;;;;15.25;5.22;;;;;;;;;;5041139;28;20025;-70
2022/04/28 00:17:42;;;;;;;11.77;4.53;;;;;;;;;;5041864;28;20138;-70
2022/04/28 00:20:08;;;;;;;12.43;4.88;;;;;;;;;;5035788;28;20029;-70
2022/04/28 00:22:34;;;;;;;12.20;5.10;;;;;;;;;;5037518;28;20030;-69
2022/04/28 00:25:00;;;;;;;15.95;5.47;;;;;;;;;;5041080;28;20036;-70
2022/04/28 00:27:25;;;;;;;10.43;4.82;;;;;;;;;;5035531;28;20036;-70
2022/04/28 00:29:50;;;;;;;11.30;4.60;;;;;;;;;;5040053;28;20043;-69
2022/04/28 00:32:16;;;;;;;12.60;4.95;;;;;;;;;;5036783;28;20033;-69
2022/04/28 00:34:41;;;;;;;11.63;4.75;;;;;;;;;;5042136;28;20570;-69
2022/04/28 00:37:08;;;;;;;10.52;4.63;;;;;;;;;;5037375;28;20040;-69
2022/04/28 00:39:34;;;;;;;16.23;4.90;;;;;;;;;;5044338;28;20048;-69
2022/04/28 00:42:00;;;;;;;8.75;4.93;;;;;;;;;;5042895;28;20033;-70
2022/04/28 00:44:25;;;;;;;8.85;4.95;;;;;;;;;;5038423;28;20029;-70
2022/04/28 00:46:50;;;;;;;11.23;4.70;;;;;;;;;;5038012;28;20120;-69
2022/04/28 00:51:59;;;;;;;12.10;5.30;;;;;;;;;;5039674;28;20055;-69
2022/04/28 00:54:28;;;;;;;9.88;4.70;;;;;;;;;;5051168;28;20028;-70
2022/04/28 00:56:53;;;;;;;12.32;4.68;;;;;;;;;;5033860;28;20033;-70
2022/04/28 00:59:19;;;;;;;10.07;4.45;;;;;;;;;;5033692;28;20141;-69
2022/04/28 01:01:44;;;;;;;12.38;5.20;;;;;;;;;;5041219;28;20102;-69
2022/04/28 01:04:09;;;;;;;9.23;4.53;;;;;;;;;;5043846;28;20037;-69
2022/04/28 01:06:35;;;;;;;9.45;4.63;;;;;;;;;;5043638;28;20141;-69
2022/04/28 01:09:00;;;;;;;11.93;4.38;;;;;;;;;;5046154;28;20036;-69
2022/04/28 01:11:31;;;;;;;13.90;4.43;;;;;;;;;;5037692;28;20071;-69
2022/04/28 01:13:56;;;;;;;9.57;4.82;;;;;;;;;;5042180;28;20064;-69
2022/04/28 01:16:22;;;;;;;10.45;4.63;;;;;;;;;;5037434;28;20068;-69
2022/04/28 01:18:47;;;;;;;12.20;4.50;;;;;;;;;;5036763;28;20195;-69
2022/04/28 01:21:12;;;;;;;11.40;4.47;;;;;;;;;;5037409;28;20028;-69
2022/04/28 01:23:38;;;;;;;9.32;4.55;;;;;;;;;;5036647;28;20032;-70
2022/04/28 01:26:04;;;;;;;8.00;4.60;;;;;;;;;;5034720;28;20029;-70
2022/04/28 01:28:31;;;;;;;12.48;5.13;;;;;;;;;;5043983;28;20082;-69
2022/04/28 01:30:59;;;;;;;9.13;4.78;;;;;;;;;;5038419;28;20030;-70
2022/04/28 01:33:24;;;;;;;12.98;5.10;;;;;;;;;;5037642;28;20102;-69
2022/04/28 01:35:49;;;;;;;10.35;5.00;;;;;;;;;;5042309;28;20053;-70
2022/04/28 01:38:15;;;;;;;12.32;5.00;;;;;;;;;;5046305;28;20063;-70
2022/04/28 01:40:40;;;;;;;9.35;4.50;;;;;;;;;;5045014;28;20128;-69
2022/04/28 01:43:05;;;;;;;8.40;4.47;;;;;;;;;;5038217;28;20040;-69
2022/04/28 01:45:31;;;;;;;10.82;5.20;;;;;;;;;;5048887;28;20033;-69
2022/04/28 01:47:56;;;;;;;10.55;4.75;;;;;;;;;;5036639;28;20041;-70
2022/04/28 01:50:22;;;;;;;10.55;4.63;;;;;;;;;;5043382;28;20037;-70
2022/04/28 01:55:31;;;;;;;9.70;4.63;;;;;;;;;;5048463;28;20383;-70
2022/04/28 01:57:57;;;;;;;11.68;4.43;;;;;;;;;;5044896;28;20451;-69
2022/04/28 02:00:23;;;;;;;9.30;5.05;;;;;;;;;;5044320;28;20526;-69
2022/04/28 02:02:48;;;;;;;15.13;5.03;;;;;;;;;;5041144;28;20028;-69
2022/04/28 02:05:14;;;;;;;10.18;4.80;;;;;;;;;;5044992;28;20414;-69
2022/04/28 02:07:39;;;;;;;12.23;4.90;;;;;;;;;;5043301;28;20041;-69
2022/04/28 02:10:05;;;;;;;12.85;4.90;;;;;;;;;;5046494;28;20044;-69
2022/04/28 02:12:31;;;;;;;11.40;5.10;;;;;;;;;;5045144;28;20127;-70
2022/04/28 02:14:57;;;;;;;14.85;5.03;;;;;;;;;;5040933;28;20160;-69
2022/04/28 02:17:24;;;;;;;9.90;5.00;;;;;;;;;;5037547;28;20158;-70
2022/04/28 02:19:50;;;;;;;18.45;5.15;;;;;;;;;;5042158;28;20029;-69
2022/04/28 02:22:16;;;;;;;14.15;5.28;;;;;;;;;;5041825;28;20044;-69
2022/04/28 02:24:41;;;;;;;13.73;4.97;;;;;;;;;;5032179;28;20507;-70
2022/04/28 02:27:08;;;;;;;13.57;4.47;;;;;;;;;;5044467;28;20055;-70
2022/04/28 02:29:34;;;;;;;10.35;4.65;;;;;;;;;;5040834;28;20063;-69
2022/04/28 02:31:59;;;;;;;13.05;5.53;;;;;;;;;;5047270;28;20060;-69
2022/04/28 02:34:24;;;;;;;10.48;4.78;;;;;;;;;;5033292;28;20525;-69
2022/04/28 02:36:50;;;;;;;10.95;4.93;;;;;;;;;;5040814;28;20116;-69
2022/04/28 02:39:17;;;;;;;10.00;4.35;;;;;;;;;;5042923;28;20108;-69
2022/04/28 02:41:44;;;;;;;10.07;5.32;;;;;;;;;;5042494;28;20575;-70
2022/04/28 02:44:11;;;;;;;10.98;4.88;;;;;;;;;;5039143;28;20419;-70
2022/04/28 02:46:37;;;;;;;11.30;5.43;;;;;;;;;;5042390;28;20025;-70
2022/04/28 02:49:03;;;;;;;10.45;4.85;;;;;;;;;;5037435;28;20044;-70
2022/04/28 02:51:28;;;;;;;11.70;5.13;;;;;;;;;;5037413;28;20117;-70
2022/04/28 02:53:54;;;;;;;14.88;5.18;;;;;;;;;;5046151;28;20140;-70
2022/04/28 02:56:19;;;;;;;12.35;4.97;;;;;;;;;;5038477;28;20739;-70
2022/04/28 02:58:45;;;;;;;11.70;4.70;;;;;;;;;;5039673;28;20120;-70
2022/04/28 03:01:11;;;;;;;10.95;4.85;;;;;;;;;;5039429;28;20399;-70
2022/04/28 03:03:36;;;;;;;11.82;5.18;;;;;;;;;;5041078;28;20036;-70
2022/04/28 03:11:30;;;;;;;13.20;5.07;;;;;;;;;;5039242;28;20556;-70
2022/04/28 03:13:56;;;;;;;15.57;5.18;;;;;;;;;;5039985;28;20049;-70
2022/04/28 03:16:22;;;;;;;11.90;4.93;;;;;;;;;;5033859;28;20593;-70
2022/04/28 03:18:48;;;;;;;11.60;4.95;;;;;;;;;;5044312;28;20124;-70
2022/04/28 03:21:14;;;;;;;11.68;5.53;;;;;;;;;;5042467;28;20025;-69
2022/04/28 03:23:39;;;;;;;12.45;5.53;;;;;;;;;;5039085;28;20404;-70
2022/04/28 03:26:04;;;;;;;12.98;5.35;;;;;;;;;;5039730;28;20430;-69
2022/04/28 03:28:35;;;;;;;13.70;5.53;;;;;;;;;;5043191;28;20037;-70
2022/04/28 03:31:04;;;;;;;12.85;5.32;;;;;;;;;;5046192;28;20052;-70
2022/04/28 03:33:30;;;;;;;12.18;5.07;;;;;;;;;;5047414;28;20043;-70
2022/04/28 03:35:55;;;;;;;13.88;6.07;;;;;;;;;;5035827;28;20041;-70
2022/04/28 03:38:21;;;;;;;13.70;6.53;;;;;;;;;;5029830;28;20063;-69
2022/04/28 03:40:47;;;;;;;16.58;7.28;;;;;;;;;;5037858;28;20073;-70
2022/04/28 03:43:13;;;;;;;18.67;8.25;;;;;;;;;;5035166;28;20033;-70
2022/04/28 03:45:39;;;;;;;13.15;7.18;;;;;;;;;;5031602;28;20040;-70
2022/04/28 03:48:08;;;;;;;12.75;6.53;;;;;;;;;;5039551;28;20025;-70
2022/04/28 03:50:33;;;;;;;14.88;6.07;;;;;;;;;;5036511;28;20481;-70
2022/04/28 03:52:59;;;;;;;14.65;6.50;;;;;;;;;;5034581;28;20029;-70
2022/04/28 03:55:25;;;;;;;20.80;6.35;;;;;;;;;;5036149;28;20045;-70
2022/04/28 03:57:51;;;;;;;14.77;5.72;;;;;;;;;;5035527;28;20029;-70
2022/04/28 04:00:17;;;;;;;11.23;6.05;;;;;;;;;;5041970;28;20471;-70
2022/04/28 04:02:42;;;;;;;13.68;5.82;;;;;;;;;;5040962;28;20029;-69
2022/04/28 04:05:08;;;;;;;13.15;5.45;;;;;;;;;;5038563;28;20025;-70
2022/04/28 04:07:35;;;;;;;16.10;5.90;;;;;;;;;;5043539;28;20040;-70
2022/04/28 04:10:01;;;;;;;14.10;4.95;;;;;;;;;;5042207;28;20034;-70
2022/04/28 04:12:26;;;;;;;15.32;6.07;;;;;;;;;;5034436;28;20049;-70
2022/04/28 04:14:52;;;;;;;13.35;5.78;;;;;;;;;;5036104;28;20036;-70
2022/04/28 04:17:19;;;;;;;13.38;5.78;;;;;;;;;;5043710;28;20524;-69
2022/04/28 04:19:44;;;;;;;14.32;6.10;;;;;;;;;;5036529;28;20086;-70
2022/04/28 04:22:09;;;;;;;12.70;5.60;;;;;;;;;;5044194;28;20040;-70
2022/04/28 04:24:35;;;;;;;13.15;5.53;;;;;;;;;;5045105;28;20033;-70
2022/04/28 04:27:01;;;;;;;17.75;6.10;;;;;;;;;;5037224;28;20619;-70
2022/04/28 04:29:26;;;;;;;16.00;6.00;;;;;;;;;;5034351;28;20036;-70
2022/04/28 04:34:35;;;;;;;11.63;5.25;;;;;;;;;;5031445;28;20124;-70
2022/04/28 04:37:01;;;;;;;17.25;5.70;;;;;;;;;;5031247;28;20111;-70
2022/04/28 04:39:26;;;;;;;16.85;6.00;;;;;;;;;;5040606;28;20037;-70
2022/04/28 04:41:52;;;;;;;16.17;5.85;;;;;;;;;;5042865;28;20052;-70
2022/04/28 04:44:17;;;;;;;16.73;5.55;;;;;;;;;;5030358;28;20033;-70
2022/04/28 04:46:43;;;;;;;14.65;5.53;;;;;;;;;;5038279;28;20064;-70
2022/04/28 04:49:08;;;;;;;16.70;6.25;;;;;;;;;;5044133;28;20506;-71
2022/04/28 04:51:34;;;;;;;9.65;5.28;;;;;;;;;;5033842;28;20037;-70
2022/04/28 04:53:59;;;;;;;15.68;5.82;;;;;;;;;;5038020;28;20040;-70
2022/04/28 04:56:24;;;;;;;13.23;5.90;;;;;;;;;;5036045;28;20049;-69
2022/04/28 04:58:50;;;;;;;13.45;5.57;;;;;;;;;;5039168;28;20132;-70
2022/04/28 05:01:15;;;;;;;12.95;6.10;;;;;;;;;;5036316;28;20036;-69
2022/04/28 05:03:41;;;;;;;12.13;6.10;;;;;;;;;;5044484;28;20772;-69
2022/04/28 05:06:07;;;;;;;17.23;6.93;;;;;;;;;;5039787;28;20049;-70
2022/04/28 05:08:32;;;;;;;12.88;6.97;;;;;;;;;;5041410;28;20102;-70
2022/04/28 05:10:58;;;;;;;19.77;5.95;;;;;;;;;;5040371;28;20121;-70
2022/04/28 05:13:23;;;;;;;13.48;5.95;;;;;;;;;;5032168;28;20037;-70
2022/04/28 05:15:49;;;;;;;11.82;6.43;;;;;;;;;;5036076;28;20043;-70
2022/04/28 05:18:14;;;;;;;15.07;5.93;;;;;;;;;;5035071;28;20452;-70
2022/04/28 05:20:39;;;;;;;19.50;5.47;;;;;;;;;;5030759;28;20028;-69
2022/04/28 05:23:05;;;;;;;15.45;6.43;;;;;;;;;;5031735;28;20136;-70
2022/04/28 05:25:30;;;;;;;14.38;6.22;;;;;;;;;;5032833;28;20029;-74
2022/04/28 05:27:56;;;;;;;17.63;6.55;;;;;;;;;;5032525;28;20070;-70
2022/04/28 05:30:22;;;;;;;11.10;5.65;;;;;;;;;;5040086;28;20047;-70
2022/04/28 05:32:47;;;;;;;14.68;5.95;;;;;;;;;;5029815;28;20113;-70
2022/04/28 05:35:12;;;;;;;13.80;6.30;;;;;;;;;;5036935;28;20467;-70
2022/04/28 05:37:39;;;;;;;22.15;6.78;;;;;;;;;;5039876;28;20065;-70
2022/04/28 05:40:08;;;;;;;15.68;6.57;;;;;;;;;;5044549;28;20086;-70
2022/04/28 05:48:03;;;;;;;16.13;6.70;;;;;;;;;;5032325;28;20087;-70
2022/04/28 05:50:29;;;;;;;16.60;6.65;;;;;;;;;;5030122;28;20052;-70
2022/04/28 05:52:54;;;;;;;17.02;7.07;;;;;;;;;;5033191;28;20418;-70
2022/04/28 05:55:19;;;;;;;16.55;6.82;;;;;;;;;;5039464;28;20033;-70
2022/04/28 05:57:45;;;;;;;17.15;6.70;;;;;;;;;;5039158;28;20033;-70
2022/04/28 06:00:10;;;;;;;14.20;6.75;;;;;;;;;;5046077;28;20029;-70
2022/04/28 06:02:37;;;;;;;19.00;6.55;;;;;;;;;;5039828;28;20417;-70
2022/04/28 06:05:03;;;;;;;13.90;7.03;;;;;;;;;;5028762;28;20041;-69
2022/04/28 06:07:28;;;;;;;15.45;6.55;;;;;;;;;;5027323;28;20044;-72
2022/04/28 06:09:54;;;;;;;14.23;7.38;;;;;;;;;;5036497;28;20036;-70
2022/04/28 06:12:20;;;;;;;15.07;6.70;;;;;;;;;;5032422;28;20083;-70
2022/04/28 06:14:45;;;;;;;23.38;7.43;;;;;;;;;;5046474;28;20554;-70
2022/04/28 06:17:10;;;;;;;13.90;7.05;;;;;;;;;;5044922;28;20470;-68
2022/04/28 06:19:36;;;;;;;17.88;7.57;;;;;;;;;;5036901;28;20469;-68
2022/04/28 06:22:01;;;;;;;20.23;6.93;;;;;;;;;;5046610;28;20518;-68
2022/04/28 06:24:26;;;;;;;15.68;7.70;;;;;;;;;;5029496;28;20160;-69
2022/04/28 06:26:52;;;;;;;13.98;6.88;;;;;;;;;;5027592;28;20032;-69
2022/04/28 06:29:17;;;;;;;22.42;7.75;;;;;;;;;;5036906;28;20074;-70
2022/04/28 06:31:42;;;;;;;17.15;7.80;;;;;;;;;;5041061;28;21141;-70
2022/04/28 06:34:08;;;;;;;17.90;7.40;;;;;;;;;;5036409;28;20037;-71
2022/04/28 06:36:37;;;;;;;16.45;7.93;;;;;;;;;;5042005;28;20041;-68
2022/04/28 06:39:03;;;;;;;17.65;8.15;;;;;;;;;;5041048;28;20041;-68
2022/04/28 06:41:28;;;;;;;20.67;8.45;;;;;;;;;;5038243;28;20045;-70
2022/04/28 06:43:55;;;;;;;20.77;8.27;;;;;;;;;;5031852;28;20041;-69
2022/04/28 06:46:21;;;;;;;16.70;8.43;;;;;;;;;;4992339;28;20041;-71
2022/04/28 06:48:47;;;;;;;18.70;8.18;;;;;;;;;;4988315;28;20052;-71
2022/04/28 06:51:13;;;;;;;18.52;8.80;;;;;;;;;;4981459;28;20800;-70
2022/04/28 06:53:38;;;;;;;21.58;8.90;;;;;;;;;;5028294;28;20056;-71
2022/04/28 06:56:05;;;;;;;20.05;9.13;;;;;;;;;;5036579;28;20045;-72
2022/04/28 06:58:31;;;;;;;21.23;9.68;;;;;;;;;;5035303;28;20135;-70
2022/04/28 07:00:57;;;;;;;18.55;8.27;;;;;;;;;;5038606;28;20487;-70
2022/04/28 07:03:23;;;;;;;22.58;9.30;;;;;;;;;;5032071;28;20045;-69
2022/04/28 07:05:48;;;;;;;18.67;9.75;;;;;;;;;;5030527;28;20436;-71
2022/04/28 07:08:14;;;;;;;20.67;8.95;;;;;;;;;;5036565;28;20075;-70
2022/04/28 07:10:40;;;;;;;17.40;9.15;;;;;;;;;;5039946;28;20176;-69
2022/04/28 07:13:06;;;;;;;23.60;9.25;;;;;;;;;;5039257;28;20065;-69
2022/04/28 07:15:34;;;;;;;20.52;10.43;;;;;;;;;;5034727;28;20502;-71
2022/04/28 07:18:01;;;;;;;25.45;10.25;;;;;;;;;;5038188;28;20663;-69
2022/04/28 07:20:27;;;;;;;19.88;9.63;;;;;;;;;;5033104;28;20083;-69
2022/04/28 07:22:52;;;;;;;22.42;9.98;;;;;;;;;;5038694;28;20079;-67
2022/04/28 07:25:17;;;;;;;25.05;10.75;;;;;;;;;;5036452;28;20727;-68
2022/04/28 07:27:42;;;;;;;23.17;11.07;;;;;;;;;;5040200;28;20462;-68
2022/04/28 07:30:08;;;;;;;21.20;10.23;;;;;;;;;;5036396;28;20116;-70
2022/04/28 07:32:34;;;;;;;20.77;10.18;;;;;;;;;;5037657;28;20025;-69
2022/04/28 07:35:00;;;;;;;24.40;10.57;;;;;;;;;;5033182;28;20430;-70
2022/04/28 07:37:25;;;;;;;22.27;10.40;;;;;;;;;;5037904;28;20506;-70
2022/04/28 07:39:50;;;;;;;21.98;10.65;;;;;;;;;;5029153;28;20399;-71
2022/04/28 07:42:16;;;;;;;23.55;9.32;;;;;;;;;;5037994;28;20024;-72
2022/04/28 07:44:41;;;;;;;22.23;10.82;;;;;;;;;;5032319;28;20086;-71
2022/04/28 07:47:06;;;;;;;22.23;10.32;;;;;;;;;;5035369;28;20507;-70
2022/04/28 07:49:32;;;;;;;20.40;10.77;;;;;;;;;;5037833;28;20068;-71
2022/04/28 07:51:57;;;;;;;21.45;10.48;;;;;;;;;;5037501;28;20071;-71
2022/04/28 07:54:22;;;;;;;31.20;11.82;;;;;;;;;;5030079;28;20511;-71
2022/04/28 07:56:48;;;;;;;23.27;10.25;;;;;;;;;;5029531;28;20043;-71
2022/04/28 07:59:13;;;;;;;21.75;10.70;;;;;;;;;;5038378;28;20064;-70
2022/04/28 08:01:39;;;;;;;25.55;11.23;;;;;;;;;;5033025;28;20063;-70
2022/04/28 08:04:04;;;;;;;21.00;10.52;;;;;;;;;;5037798;28;20116;-70
2022/04/28 08:06:29;;;;;;;24.35;11.43;;;;;;;;;;5035741;28;20072;-69
2022/04/28 08:08:55;;;;;;;21.88;11.35;;;;;;;;;;5036520;28;20546;-69
2022/04/28 08:11:20;;;;;;;20.63;11.05;;;;;;;;;;5031995;28;20239;-69
2022/04/28 08:13:45;;;;;;;23.58;10.95;;;;;;;;;;5027927;28;20120;-68
2022/04/28 08:16:11;;;;;;;19.05;10.15;;;;;;;;;;5024364;28;20055;-69
2022/04/28 08:18:37;;;;;;;24.63;12.13;;;;;;;;;;5032659;28;20041;-75
2022/04/28 08:21:03;;;;;;;23.17;11.45;;;;;;;;;;5034653;28;20051;-70
2022/04/28 08:23:29;;;;;;;26.10;11.70;;;;;;;;;;5032804;28;20041;-69
2022/04/28 08:25:55;;;;;;;27.92;12.15;;;;;;;;;;5035546;28;20489;-71
2022/04/28 08:28:20;;;;;;;29.10;11.90;;;;;;;;;;5036326;28;20041;-70
2022/04/28 08:30:46;;;;;;;23.45;11.98;;;;;;;;;;5030273;28;20131;-69
2022/04/28 08:33:12;;;;;;;27.48;11.90;;;;;;;;;;5037692;28;20186;-69
2022/04/28 08:35:37;;;;;;;29.08;12.05;;;;;;;;;;5030318;28;20622;-70
2022/04/28 08:38:03;;;;;;;20.58;11.00;;;;;;;;;;5032046;28;20029;-71
2022/04/28 08:40:28;;;;;;;31.20;12.27;;;;;;;;;;5027829;28;20063;-70
2022/04/28 08:42:55;;;;;;;21.95;11.20;;;;;;;;;;5036512;28;20049;-69
2022/04/28 08:45:27;;;;;;;23.90;11.88;;;;;;;;;;5033385;28;20032;-70
2022/04/28 08:47:56;;;;;;;22.38;11.55;;;;;;;;;;5033062;28;20380;-72
2022/04/28 08:50:22;;;;;;;21.77;11.20;;;;;;;;;;5034239;28;20155;-71
2022/04/28 08:52:48;;;;;;;20.63;10.95;;;;;;;;;;5028447;28;20157;-72
2022/04/28 08:55:16;;;;;;;24.17;11.77;;;;;;;;;;5031266;28;20087;-72
2022/04/28 08:57:42;;;;;;;25.35;11.05;;;;;;;;;;5032439;28;20388;-72
2022/04/28 09:00:07;;;;;;;23.88;11.63;;;;;;;;;;5032759;28;20518;-66
2022/04/28 09:02:33;;;;;;;25.75;11.98;;;;;;;;;;5032946;28;20041;-68
2022/04/28 09:05:08;;;;;;;24.77;11.80;;;;;;;;;;5026095;28;20033;-68
2022/04/28 09:07:36;;;;;;;28.77;11.70;;;;;;;;;;5031780;28;20045;-68
2022/04/28 09:10:32;;;;;;;24.25;12.05;;;;;;;;;;5025144;28;20046;-67
2022/04/28 09:15:54;;;;;;;23.98;12.18;;;;;;;;;;5031973;28;20056;-67
2022/04/28 09:18:21;;;;;;;28.98;12.40;;;;;;;;;;5036942;28;20503;-67
2022/04/28 09:20:47;;;;;;;26.98;12.07;;;;;;;;;;5031109;28;20033;-66
2022/04/28 09:23:13;;;;;;;24.08;11.70;;;;;;;;;;5029088;28;20060;-66
2022/04/28 09:25:40;;;;;;;25.55;12.45;;;;;;;;;;5034619;28;20064;-67
2022/04/28 09:28:07;;;;;;;26.55;12.23;;;;;;;;;;5036653;28;20108;-67
2022/04/28 09:30:41;;;;;;;24.92;12.73;;;;;;;;;;5028545;28;20052;-67
2022/04/28 09:33:13;;;;;;;26.90;13.55;;;;;;;;;;5040722;28;20028;-67
2022/04/28 09:35:53;;;;;;;28.63;15.30;;;;;;;;;;5030004;28;20068;-66
2022/04/28 09:38:19;;;;;;;29.40;13.80;;;;;;;;;;5023291;28;20041;-66
2022/04/28 09:43:31;;;;;;;24.48;13.57;;;;;;;;;;5034968;28;20415;-67
2022/04/28 09:45:58;;;;;;;28.52;13.45;;;;;;;;;;5029780;28;20041;-67
2022/04/28 09:48:30;;;;;;;28.63;13.13;;;;;;;;;;5034797;28;20041;-67
2022/04/28 09:51:12;;;;;;;30.35;12.73;;;;;;;;;;5041639;28;20490;-67
2022/04/28 09:53:37;;;;;;;27.35;13.82;;;;;;;;;;5038347;28;20045;-67
2022/04/28 09:56:05;;;;;;;35.22;14.10;;;;;;;;;;5047600;28;20566;-67
2022/04/28 09:58:32;;;;;;;31.02;13.60;;;;;;;;;;5035160;28;20067;-67
2022/04/28 10:01:03;;;;;;;33.40;13.65;;;;;;;;;;5031743;28;20132;-66
2022/04/28 10:03:33;;;;;;;36.60;17.38;;;;;;;;;;5036241;28;20128;-67
2022/04/28 10:06:02;;;;;;;32.60;16.10;;;;;;;;;;5040554;28;20045;-67
2022/04/28 10:08:30;;;;;;;30.85;15.85;;;;;;;;;;5030924;28;20040;-67
2022/04/28 10:10:56;;;;;;;25.60;13.30;;;;;;;;;;5032285;28;20044;-67
2022/04/28 10:13:22;;;;;;;24.65;13.45;;;;;;;;;;5034922;28;20037;-68
2022/04/28 10:15:57;;;;;;;25.67;12.63;;;;;;;;;;5039800;28;20661;-69
2022/04/28 10:18:27;;;;;;;26.58;13.05;;;;;;;;;;5033987;28;20409;-66
2022/04/28 10:21:00;;;;;;;27.60;13.85;;;;;;;;;;5031424;28;20036;-71
2022/04/28 10:34:58;;;;;;;28.95;13.32;;;;;;;;;;5033940;28;20160;-71
2022/04/28 10:37:30;;;;;;;29.35;13.13;;;;;;;;;;5039185;28;20124;-70
2022/04/28 10:39:55;;;;;;;26.45;13.68;;;;;;;;;;5032320;28;20144;-71
2022/04/28 10:42:42;;;;;;;29.52;13.93;;;;;;;;;;5032116;28;20128;-70
2022/04/28 10:45:19;;;;;;;29.00;14.45;;;;;;;;;;5031249;28;20597;-70
2022/04/28 10:47:45;;;;;;;24.52;12.45;;;;;;;;;;5030950;28;20044;-71
2022/04/28 10:50:24;;;;;;;27.38;13.73;;;;;;;;;;5035329;28;20040;-70
2022/04/28 10:53:00;;;;;;;23.67;12.70;;;;;;;;;;5034933;28;20047;-71
2022/04/28 10:55:44;;;;;;;32.15;14.50;;;;;;;;;;5031611;28;20037;-70
2022/04/28 10:58:25;;;;;;;26.75;13.07;;;;;;;;;;5032737;28;20045;-70
2022/04/28 11:00:55;;;;;;;28.45;13.63;;;;;;;;;;5028853;28;20045;-70
2022/04/28 11:03:48;;;;;;;28.85;14.07;;;;;;;;;;5029133;28;20052;-70
2022/04/28 11:06:16;;;;;;;;;;;;;;;;;;5038636;28;20045;-71
2022/04/28 11:08:48;;;;;;;28.33;14.32;;;;;;;;;;5031599;28;20441;-71
2022/04/28 11:11:14;;;;;;;26.35;13.98;;;;;;;;;;5029207;28;20050;-72
2022/04/28 11:13:43;;;;;;;27.73;13.30;;;;;;;;;;5034595;28;20099;-73
2022/04/28 11:16:10;;;;;;;29.25;13.80;;;;;;;;;;5046407;28;20132;-73
2022/04/28 11:18:35;;;;;;;27.55;13.63;;;;;;;;;;5040565;28;20090;-72
2022/04/28 11:21:02;;;;;;;25.98;13.68;;;;;;;;;;5036316;28;20410;-70
2022/04/28 11:23:41;;;;;;;24.63;13.45;;;;;;;;;;5032133;28;20068;-70
2022/04/28 11:26:08;;;;;;;27.95;13.80;;;;;;;;;;5037896;28;20038;-69
2022/04/28 11:28:37;;;;;;;25.42;13.15;;;;;;;;;;5033238;28;20148;-69
2022/04/28 11:31:21;;;;;;;25.65;13.50;;;;;;;;;;5032425;28;20514;-71
2022/04/28 11:33:48;;;;;;;;;;;;;;;;;;5030152;28;20041;-71
2022/04/28 11:36:25;;;;;;;24.60;13.30;;;;;;;;;;5032614;28;19931;-72
2022/04/28 11:38:53;;;;;;;23.45;13.38;;;;;;;;;;5036814;28;20068;-68
2022/04/28 11:41:29;;;;;;;27.42;14.25;;;;;;;;;;5038850;28;20119;-71
2022/04/28 11:43:58;;;;;;;26.80;14.25;;;;;;;;;;5029908;28;20106;-71
2022/04/28 11:46:24;;;;;;;24.58;13.73;;;;;;;;;;5032722;28;20476;-71
2022/04/28 11:48:52;;;;;;;24.35;13.63;;;;;;;;;;5030853;28;20033;-71
2022/04/28 11:51:21;;;;;;;22.30;13.48;;;;;;;;;;5029768;28;20067;-70
2022/04/28 11:53:47;;;;;;;26.45;13.60;;;;;;;;;;5032707;28;20037;-71
2022/04/28 11:56:30;;;;;;;24.63;13.73;;;;;;;;;;5030006;28;20065;-71
2022/04/28 11:58:58;;;;;;;26.35;13.15;;;;;;;;;;5034118;28;20132;-73
2022/04/28 12:01:26;;;;;;;23.45;13.75;;;;;;;;;;5036545;28;20051;-71
2022/04/28 12:03:53;;;;;;;25.33;13.73;;;;;;;;;;5031603;28;20522;-72
2022/04/28 12:06:20;;;;;;;25.17;13.73;;;;;;;;;;5036900;28;20055;-72
2022/04/28 12:08:57;;;;;;;20.90;12.30;;;;;;;;;;5032165;28;20039;-72
2022/04/28 12:14:24;;;;;;;21.15;12.35;;;;;;;;;;5029737;28;20040;-71
2022/04/28 12:19:57;;;;;;;21.85;12.10;;;;;;;;;;5031763;28;20588;-73
2022/04/28 12:22:24;;;;;;;28.85;12.85;;;;;;;;;;5031106;28;20064;-74
2022/04/28 12:24:50;;;;;;;23.30;12.45;;;;;;;;;;5035864;28;20025;-73
2022/04/28 12:27:15;;;;;;;20.98;12.00;;;;;;;;;;5033414;28;20036;-72
2022/04/28 12:29:58;;;;;;;20.92;12.02;;;;;;;;;;5035225;28;20025;-71
2022/04/28 12:32:23;;;;;;;23.95;12.20;;;;;;;;;;5031017;28;20126;-71
2022/04/28 12:35:03;;;;;;;23.73;12.73;;;;;;;;;;5032601;28;20514;-72
2022/04/28 12:37:29;;;;;;;23.10;12.20;;;;;;;;;;5030079;28;20040;-72
2022/04/28 12:39:56;;;;;;;22.50;11.57;;;;;;;;;;5029633;28;20042;-73
2022/04/28 12:42:21;;;;;;;22.08;12.43;;;;;;;;;;5031390;28;20068;-73
2022/04/28 12:44:47;;;;;;;21.25;11.80;;;;;;;;;;5027674;28;20063;-73
2022/04/28 12:47:13;;;;;;;21.02;12.55;;;;;;;;;;5028829;28;20443;-74
2022/04/28 12:49:48;;;;;;;21.10;11.63;;;;;;;;;;5032333;28;20120;-72
2022/04/28 12:52:26;;;;;;;19.88;12.23;;;;;;;;;;5033668;28;20720;-73
2022/04/28 12:55:06;;;;;;;23.05;12.40;;;;;;;;;;5035643;28;20040;-71
2022/04/28 12:57:32;;;;;;;18.35;11.55;;;;;;;;;;5030389;28;20042;-71
2022/04/28 13:00:02;;;;;;;19.50;11.70;;;;;;;;;;5032527;28;20044;-73
2022/04/28 13:02:30;;;;;;;21.15;11.98;;;;;;;;;;5030092;28;20037;-73
2022/04/28 13:05:12;;;;;;;22.90;13.25;;;;;;;;;;5035135;28;20029;-72
2022/04/28 13:07:39;;;;;;;19.60;11.73;;;;;;;;;;5031568;28;20037;-72
2022/04/28 13:10:05;;;;;;;18.55;11.25;;;;;;;;;;5038444;28;20041;-72
2022/04/28 13:12:30;;;;;;;19.67;11.93;;;;;;;;;;5033346;28;20111;-71
2022/04/28 13:14:56;;;;;;;23.15;12.00;;;;;;;;;;5026019;28;20395;-71
2022/04/28 13:17:22;;;;;;;22.38;12.00;;;;;;;;;;5032410;28;20056;-71
2022/04/28 13:19:47;;;;;;;16.13;11.07;;;;;;;;;;5030385;28;20481;-73
2022/04/28 13:22:12;;;;;;;17.05;11.70;;;;;;;;;;5033558;28;20116;-72
2022/04/28 13:24:38;;;;;;;19.63;10.80;;;;;;;;;;5034776;28;20037;-71
2022/04/28 13:27:03;;;;;;;16.70;11.02;;;;;;;;;;5039058;28;20104;-72
2022/04/28 13:29:28;;;;;;;18.80;11.38;;;;;;;;;;5035734;28;20029;-74
2022/04/28 13:31:54;;;;;;;17.70;10.77;;;;;;;;;;5033859;28;20124;-73
2022/04/28 13:34:19;;;;;;;17.80;10.23;;;;;;;;;;5037868;28;20657;-71
2022/04/28 13:36:45;;;;;;;15.98;10.07;;;;;;;;;;5031190;28;20057;-71
2022/04/28 13:39:10;;;;;;;15.57;9.80;;;;;;;;;;5039339;28;20407;-71
2022/04/28 13:41:35;;;;;;;16.65;9.45;;;;;;;;;;5038485;28;20029;-71
2022/04/28 13:44:01;;;;;;;19.17;9.95;;;;;;;;;;5035474;28;20034;-71
2022/04/28 13:46:26;;;;;;;16.10;9.18;;;;;;;;;;5041402;28;20033;-74
2022/04/28 13:48:52;;;;;;;16.52;9.50;;;;;;;;;;5038305;28;20164;-74
2022/04/28 13:51:17;;;;;;;17.25;9.30;;;;;;;;;;5038112;28;20037;-71
2022/04/28 13:53:44;;;;;;;18.73;10.35;;;;;;;;;;5040133;28;20514;-71
2022/04/28 13:56:09;;;;;;;18.13;10.73;;;;;;;;;;5036813;28;20526;-72
2022/04/28 13:58:37;;;;;;;18.23;10.45;;;;;;;;;;5042428;28;20037;-73
2022/04/28 14:01:03;;;;;;;15.88;10.48;;;;;;;;;;5033287;28;20540;-72
2022/04/28 14:03:30;;;;;;;16.13;10.77;;;;;;;;;;5028529;28;20048;-71
2022/04/28 14:05:57;;;;;;;18.27;10.35;;;;;;;;;;5037274;28;20506;-74
2022/04/28 14:08:23;;;;;;;18.45;10.70;;;;;;;;;;5032376;28;20140;-74
2022/04/28 14:10:49;;;;;;;15.65;10.05;;;;;;;;;;5044138;28;20046;-73
2022/04/28 14:13:15;;;;;;;15.40;10.30;;;;;;;;;;5031204;28;20037;-71
2022/04/28 14:15:43;;;;;;;20.15;10.43;;;;;;;;;;5028236;28;20038;-71
2022/04/28 14:18:08;;;;;;;18.90;10.68;;;;;;;;;;5033327;28;20819;-71
2022/04/28 14:20:34;;;;;;;18.75;10.38;;;;;;;;;;5026468;28;20058;-71
2022/04/28 14:23:00;;;;;;;16.75;10.07;;;;;;;;;;5036144;28;20113;-71
2022/04/28 14:25:26;;;;;;;17.63;10.13;;;;;;;;;;5043828;28;20518;-72
2022/04/28 14:27:51;;;;;;;17.38;9.30;;;;;;;;;;5038689;28;20037;-72
2022/04/28 14:30:17;;;;;;;15.90;10.20;;;;;;;;;;5043792;28;20031;-71
2022/04/28 14:32:42;;;;;;;18.15;9.75;;;;;;;;;;5038749;28;20424;-71
2022/04/28 14:35:09;;;;;;;16.30;9.93;;;;;;;;;;5027937;28;20037;-71
2022/04/28 14:37:37;;;;;;;19.02;10.73;;;;;;;;;;5035113;28;20541;-71
2022/04/28 14:40:05;;;;;;;14.82;9.65;;;;;;;;;;5037556;28;20067;-75
2022/04/28 14:42:30;;;;;;;20.35;9.98;;;;;;;;;;5032208;28;20058;-74
2022/04/28 14:44:55;;;;;;;16.83;10.52;;;;;;;;;;5040039;28;20517;-74
2022/04/28 14:47:21;;;;;;;16.77;10.32;;;;;;;;;;5033869;28;20033;-74
2022/04/28 14:52:33;;;;;;;15.25;10.40;;;;;;;;;;5040480;28;20035;-73
2022/04/28 14:55:01;;;;;;;16.42;9.43;;;;;;;;;;5038281;28;20509;-73
2022/04/28 14:57:28;;;;;;;17.38;10.15;;;;;;;;;;5032056;28;20495;-70
2022/04/28 14:59:54;;;;;;;23.73;9.23;;;;;;;;;;5034360;28;20516;-70
2022/04/28 15:02:20;;;;;;;20.33;9.73;;;;;;;;;;5030598;28;20037;-73
2022/04/28 15:04:46;;;;;;;17.55;9.02;;;;;;;;;;5036604;28;20052;-73
2022/04/28 15:07:15;;;;;;;20.20;9.30;;;;;;;;;;5053271;28;20056;-74
2022/04/28 15:09:42;;;;;;;14.35;9.30;;;;;;;;;;5042330;28;20037;-74